MMIO

Plan De Guadalupe International Airport

Saltillo, Mexico
TAF MMIO 231744Z 2318/2418 00000KT 1/2SM FG VV003 FM232000 36005KT 1/2SM FG VV003 TEMPO 2320/2324 1SM BR HZ OVC005 FM240100 00000KT 1/2SM FG VV003 TEMPO 2411/2415 1/4SM -DZ FG VV001
Issued Valid From Valid To
Oct-23 @ 17:44 UTC
(12 hours ago)
Oct-23 @ 18:00 UTC
(11 hours ago)
Oct-24 @ 18:00 UTC
(in 13 hours)
Expired Click to View Oct-23 @ 18:00 to Oct-23 @ 20:00
TAF MMIO 231744Z 2318/2418 00000KT 1/2SM FG VV003
Visibility Clouds Conditions
1/2 miles
  • Vertical visibility at 300' AGL
  • Fog
Expired Click to View Oct-23 @ 20:00 to Oct-24 @ 00:00
TEMPO 2320/2324 1SM BR HZ OVC005
Visibility Clouds Conditions
1 miles
  • Overcast at 500' AGL
  • Mist
  • Haze
Expired Click to View Oct-23 @ 20:00 to Oct-24 @ 01:00
FM232000 36005KT 1/2SM FG VV003
Wind Visibility Clouds Conditions
360° at 5 knots 1/2 miles
  • Vertical visibility at 300' AGL
  • Fog
From Oct-24 @ 01:00 to Oct-24 @ 18:00
FM240100 00000KT 1/2SM FG VV003
Visibility Clouds Conditions
1/2 miles
  • Vertical visibility at 300' AGL
  • Fog
Temporary Oct-24 @ 11:00 to Oct-24 @ 15:00
TEMPO 2411/2415 1/4SM -DZ FG VV001
Visibility Clouds Conditions
1/4 miles
  • Vertical visibility at 100' AGL
  • Light Drizzle
  • Fog
TAF MMIO 231744Z 2318/2418 00000KT 1/2SM FG VV003 FM232000 36005KT 1/2SM FG VV003 TEMPO 2320/2324 1SM BR HZ OVC005 FM240100 00000KT 1/2SM FG VV003 TEMPO 2411/2415 1/4SM -DZ FG VV001
Issued Oct-23 @ 17:44 UTC
(12 hours ago)
Valid From Oct-23 @ 18:00 UTC
(11 hours ago)
Valid To Oct-24 @ 18:00 UTC
(in 13 hours)
Oct-23 @ 18:00 - Oct-23 @ 20:00
Clouds
  • Vertical visibility at 300' AGL
Conditions
  • Fog
Oct-23 @ 20:00 - Oct-24 @ 00:00
Clouds
  • Overcast at 500' AGL
Conditions
  • Mist
  • Haze
Oct-23 @ 20:00 - Oct-24 @ 01:00
Wind Visibility
360° at 5 knots 1/2 miles
Clouds
  • Vertical visibility at 300' AGL
Conditions
  • Fog
From Oct-24 @ 01:00 - Oct-24 @ 18:00
Clouds
  • Vertical visibility at 300' AGL
Conditions
  • Fog
Temporary Oct-24 @ 11:00 - Oct-24 @ 15:00
Clouds
  • Vertical visibility at 100' AGL
Conditions
  • Light Drizzle
  • Fog